Time;durP1;ratioP1;P1;durP2;ratioP2;P2;SDS_P1;SDS_P2;PMS_P1;PMS_P2;Temp;Humidity;BMP_temperature;BMP_pressure;BME280_temperature;BME280_humidity;BME280_pressure;Samples;Min_cycle;Max_cycle;Signal;HPM_P1;HPM_P2
2022/01/08 00:01:13;;;;;;;12.53;7.50;;;;;;;-0.14;100.00;100355.31;4978689;28;20212;-76
2022/01/08 00:03:41;;;;;;;10.83;7.47;;;;;;;-0.15;100.00;100339.09;4982937;28;20225;-77
2022/01/08 00:06:08;;;;;;;12.27;7.53;;;;;;;-0.13;100.00;100346.81;4983783;28;20204;-76
2022/01/08 00:08:35;;;;;;;11.50;6.53;;;;;;;-0.11;100.00;100342.56;4978245;28;21492;-76
2022/01/08 00:11:01;;;;;;;11.43;7.60;;;;;;;-0.13;100.00;100346.81;4985705;28;20199;-76
2022/01/08 00:13:28;;;;;;;11.50;7.20;;;;;;;-0.11;100.00;100340.00;4983586;28;20229;-76
2022/01/08 00:15:54;;;;;;;9.37;6.40;;;;;;;-0.12;100.00;100345.94;4983450;28;20596;-76
2022/01/08 00:18:22;;;;;;;13.70;7.00;;;;;;;-0.10;100.00;100349.41;4988932;28;20272;-76
2022/01/08 00:20:48;;;;;;;9.10;6.43;;;;;;;-0.11;100.00;100351.09;4983536;28;20716;-76
2022/01/08 00:23:14;;;;;;;10.67;6.27;;;;;;;-0.08;100.00;100350.31;4980386;28;20589;-76
2022/01/08 00:25:41;;;;;;;11.73;6.53;;;;;;;-0.08;100.00;100345.16;4984000;28;20239;-76
2022/01/08 00:28:07;;;;;;;10.30;6.10;;;;;;;-0.07;100.00;100345.19;4979471;28;20205;-76
2022/01/08 00:30:34;;;;;;;9.13;6.30;;;;;;;-0.06;100.00;100349.47;4981475;28;20210;-76
2022/01/08 00:33:00;;;;;;;10.77;6.43;;;;;;;-0.05;100.00;100348.63;4987445;28;20229;-76
2022/01/08 00:35:28;;;;;;;9.43;6.00;;;;;;;-0.05;100.00;100348.63;4984326;28;20205;-74
2022/01/08 00:37:54;;;;;;;8.40;5.60;;;;;;;-0.04;100.00;100347.78;4981239;28;20218;-76
2022/01/08 00:40:21;;;;;;;7.57;5.77;;;;;;;-0.02;100.00;100340.09;4980225;28;20215;-76
2022/01/08 00:42:48;;;;;;;8.03;5.23;;;;;;;-0.01;100.00;100341.84;4984618;28;20228;-76
2022/01/08 00:45:14;;;;;;;8.47;5.37;;;;;;;-0.02;100.00;100337.53;4976032;28;20623;-76
2022/01/08 00:47:41;;;;;;;7.93;5.57;;;;;;;0.00;100.00;100333.31;4987576;28;20208;-76
2022/01/08 00:50:08;;;;;;;6.73;5.23;;;;;;;0.02;100.00;100335.88;4989374;28;20209;-76
2022/01/08 00:52:36;;;;;;;8.73;5.43;;;;;;;0.02;100.00;100338.44;4987730;28;20232;-76
2022/01/08 00:55:03;;;;;;;6.97;5.40;;;;;;;0.04;100.00;100339.34;4989069;28;20244;-76
2022/01/08 00:57:29;;;;;;;8.87;5.80;;;;;;;0.06;100.00;100327.41;4983142;28;20209;-76
2022/01/08 00:59:56;;;;;;;8.10;5.40;;;;;;;0.08;100.00;100320.59;4990369;28;20551;-76
2022/01/08 01:02:22;;;;;;;7.20;5.10;;;;;;;0.05;100.00;100318.84;4987903;28;20316;-76
2022/01/08 01:04:48;;;;;;;9.23;5.60;;;;;;;0.05;100.00;100328.22;4985399;28;20201;-76
2022/01/08 01:07:15;;;;;;;7.23;5.20;;;;;;;0.07;100.00;100322.28;4995422;28;20205;-76
2022/01/08 01:09:42;;;;;;;7.00;5.10;;;;;;;0.06;100.00;100322.28;4993278;28;20201;-76
2022/01/08 01:12:09;;;;;;;8.90;5.30;;;;;;;0.06;100.00;100317.16;4983993;28;20253;-76
2022/01/08 01:14:35;;;;;;;9.90;5.30;;;;;;;0.06;100.00;100314.59;4986310;28;20293;-76
2022/01/08 01:17:02;;;;;;;7.63;5.47;;;;;;;0.07;100.00;100311.16;4991814;28;20781;-76
2022/01/08 01:19:29;;;;;;;8.83;5.37;;;;;;;0.07;100.00;100308.59;4983968;28;20909;-76
2022/01/08 01:21:58;;;;;;;7.03;5.03;;;;;;;0.07;100.00;100308.59;4983580;28;20227;-76
2022/01/08 01:24:26;;;;;;;7.77;5.33;;;;;;;0.06;100.00;100302.63;4984869;28;20218;-76
2022/01/08 01:27:19;;;;;;;9.90;5.40;;;;;;;0.06;100.00;100296.63;4981256;28;20571;-76
2022/01/08 01:29:53;;;;;;;7.93;5.37;;;;;;;0.04;100.00;100304.31;4986732;28;20204;-75
2022/01/08 01:43:35;;;;;;;9.27;5.73;;;;;;;0.06;100.00;100283.81;4982290;28;20228;-76
2022/01/08 01:48:59;;;;;;;8.17;5.27;;;;;;;0.07;100.00;100275.28;4988375;28;20213;-75
2022/01/08 01:51:26;;;;;;;8.00;5.60;;;;;;;0.07;100.00;100272.72;4984618;28;20208;-76
2022/01/08 01:53:52;;;;;;;9.10;5.63;;;;;;;0.09;100.00;100278.69;4985026;28;20598;-76
2022/01/08 01:56:20;;;;;;;12.63;6.40;;;;;;;0.09;100.00;100271.91;4982246;28;20350;-76
2022/01/08 01:58:48;;;;;;;9.00;5.47;;;;;;;0.10;100.00;100272.75;4988192;28;20227;-76
2022/01/08 02:01:15;;;;;;;7.97;5.70;;;;;;;0.10;100.00;100283.84;4985061;28;20207;-75
2022/01/08 02:03:41;;;;;;;9.87;5.73;;;;;;;0.10;100.00;100272.75;4988407;28;20283;-76
2022/01/08 02:06:09;;;;;;;11.57;6.20;;;;;;;0.10;100.00;100275.31;4997474;28;20196;-76
2022/01/08 02:08:37;;;;;;;9.93;6.00;;;;;;;0.10;100.00;100277.88;4990474;28;20196;-76
2022/01/08 02:11:04;;;;;;;12.73;6.40;;;;;;;0.11;100.00;100277.03;4985777;28;20197;-76
2022/01/08 02:13:32;;;;;;;8.17;5.77;;;;;;;0.11;100.00;100265.06;4985126;28;20237;-76
2022/01/08 02:16:01;;;;;;;9.40;6.43;;;;;;;0.10;100.00;100268.47;4987266;28;20203;-76
2022/01/08 02:18:29;;;;;;;8.67;5.90;;;;;;;0.10;100.00;100263.34;4985117;28;20231;-76
2022/01/08 02:20:58;;;;;;;8.53;5.33;;;;;;;0.11;100.00;100269.34;4984794;28;20212;-76
2022/01/08 02:23:26;;;;;;;11.17;6.00;;;;;;;0.11;100.00;100259.94;4980498;28;20239;-76
2022/01/08 02:26:01;;;;;;;10.97;6.23;;;;;;;0.10;100.00;100255.66;4987794;28;20210;-76
2022/01/08 02:28:28;;;;;;;9.23;5.63;;;;;;;0.11;100.00;100256.53;4983672;28;20204;-76
2022/01/08 02:30:54;;;;;;;8.27;5.63;;;;;;;0.11;100.00;100259.09;4989387;28;20202;-76
2022/01/08 02:33:24;;;;;;;9.70;5.57;;;;;;;0.11;100.00;100254.81;4989027;28;21003;-76
2022/01/08 02:35:50;;;;;;;9.10;5.20;;;;;;;0.12;100.00;100250.53;4986140;28;20201;-76
2022/01/08 02:38:18;;;;;;;7.90;5.30;;;;;;;0.10;100.00;100254.81;4999333;28;20268;-76
2022/01/08 02:40:51;;;;;;;8.20;5.37;;;;;;;0.04;100.00;100249.63;4983356;28;20213;-76
2022/01/08 02:43:18;;;;;;;10.03;5.70;;;;;;;0.00;100.00;100251.28;4986242;28;20221;-76
2022/01/08 02:45:44;;;;;;;7.80;5.50;;;;;;;-0.01;100.00;100245.28;4985781;28;20207;-76
2022/01/08 02:48:11;;;;;;;7.60;5.53;;;;;;;-0.02;100.00;100242.69;4987513;28;20212;-76
2022/01/08 02:50:37;;;;;;;8.27;5.40;;;;;;;-0.04;100.00;100237.56;4984276;28;20190;-76
2022/01/08 02:53:03;;;;;;;9.97;5.73;;;;;;;-0.07;100.00;100232.41;4990267;28;20225;-76
2022/01/08 02:55:31;;;;;;;7.13;5.00;;;;;;;-0.11;100.00;100234.91;4979634;28;20213;-76
2022/01/08 02:57:57;;;;;;;8.87;5.00;;;;;;;-0.14;100.00;100228.06;4983387;28;20205;-76
2022/01/08 03:00:24;;;;;;;10.07;5.83;;;;;;;-0.18;100.00;100223.72;4983550;28;20220;-76
2022/01/08 03:02:52;;;;;;;8.97;5.43;;;;;;;-0.20;100.00;100230.56;4984330;28;20259;-76
2022/01/08 03:05:19;;;;;;;8.83;5.20;;;;;;;-0.22;100.00;100230.53;4984345;28;20274;-76
2022/01/08 03:07:47;;;;;;;9.70;5.53;;;;;;;-0.22;100.00;100227.13;4989519;28;20206;-76
2022/01/08 03:10:16;;;;;;;9.07;4.83;;;;;;;-0.24;100.00;100226.25;4984858;28;20747;-76
2022/01/08 03:12:45;;;;;;;11.07;5.30;;;;;;;-0.26;100.00;100226.22;4985459;28;20233;-76
2022/01/08 03:15:14;;;;;;;7.87;5.33;;;;;;;-0.28;100.00;100227.91;4988827;28;20211;-76
2022/01/08 03:17:41;;;;;;;7.13;4.80;;;;;;;-0.34;100.00;100227.81;4979969;28;20205;-76
2022/01/08 03:20:11;;;;;;;7.07;4.87;;;;;;;-0.40;100.00;100223.50;4984923;28;20210;-76
2022/01/08 03:22:39;;;;;;;6.77;4.20;;;;;;;-0.48;100.00;100222.53;4978331;28;20236;-76
2022/01/08 03:25:07;;;;;;;5.77;4.40;;;;;;;-0.55;100.00;100222.44;4990927;28;20209;-76
2022/01/08 03:27:34;;;;;;;6.83;4.30;;;;;;;-0.65;100.00;100222.34;4979998;28;20768;-76
2022/01/08 03:30:02;;;;;;;7.17;4.70;;;;;;;-0.71;100.00;100218.81;4982282;28;20425;-76
2022/01/08 03:32:28;;;;;;;8.90;4.97;;;;;;;-0.81;100.00;100205.91;4986529;28;20717;-76
2022/01/08 03:34:55;;;;;;;7.53;4.67;;;;;;;-0.90;100.00;100208.31;4983980;28;20594;-76
2022/01/08 03:37:21;;;;;;;6.50;4.40;;;;;;;-0.97;100.00;100214.19;4973327;28;20652;-75
2022/01/08 03:39:47;;;;;;;7.30;4.50;;;;;;;-1.04;100.00;100207.28;4988812;28;20236;-76
2022/01/08 03:42:14;;;;;;;6.10;3.97;;;;;;;-1.11;100.00;100208.03;4990283;28;20221;-76
2022/01/08 03:44:40;;;;;;;6.77;4.40;;;;;;;-1.19;100.00;100208.78;4982964;28;20196;-76
2022/01/08 03:47:31;;;;;;;8.53;4.77;;;;;;;-1.26;100.00;100198.44;4992414;28;20286;-76
2022/01/08 03:49:59;;;;;;;6.60;4.27;;;;;;;-1.31;100.00;100208.59;4981765;28;20419;-76
2022/01/08 03:52:25;;;;;;;6.57;4.53;;;;;;;-1.37;100.00;100205.94;4985421;28;20627;-76
2022/01/08 03:54:51;;;;;;;5.37;3.83;;;;;;;-1.41;100.00;100207.56;4991463;28;20559;-76
2022/01/08 03:57:18;;;;;;;5.63;3.97;;;;;;;-1.40;100.00;100204.19;4987029;28;20260;-76
2022/01/08 03:59:44;;;;;;;5.80;4.00;;;;;;;-1.40;100.00;100200.78;4986684;28;20683;-75
2022/01/08 04:02:12;;;;;;;5.97;3.90;;;;;;;-1.43;100.00;100206.69;4991684;28;20590;-76
2022/01/08 04:04:38;;;;;;;5.37;3.93;;;;;;;-1.50;100.00;100207.44;4987511;28;20205;-76
2022/01/08 04:07:05;;;;;;;6.47;4.17;;;;;;;-1.52;100.00;100207.41;4985992;28;20208;-76
2022/01/08 04:09:31;;;;;;;7.33;4.33;;;;;;;-1.53;100.00;100209.94;4990314;28;20260;-76
2022/01/08 04:11:57;;;;;;;5.73;4.33;;;;;;;-1.53;100.00;100207.38;4990250;28;20233;-76
2022/01/08 04:14:26;;;;;;;6.73;4.77;;;;;;;-1.56;100.00;100213.31;4984055;28;20292;-75
2022/01/08 04:16:53;;;;;;;7.67;4.87;;;;;;;-1.55;100.00;100211.59;4983419;28;20694;-76
2022/01/08 04:19:21;;;;;;;6.50;4.23;;;;;;;-1.57;100.00;100203.91;4983992;28;20218;-76
2022/01/08 04:24:33;;;;;;;9.10;4.77;;;;;;;-1.59;100.00;100217.50;4996475;28;20299;-76
2022/01/08 04:27:00;;;;;;;7.50;5.00;;;;;;;-1.60;100.00;100220.88;4992208;28;20216;-76
2022/01/08 04:29:26;;;;;;;7.83;5.23;;;;;;;-1.54;100.00;100221.84;4988196;28;20670;-75
2022/01/08 04:31:53;;;;;;;7.53;5.07;;;;;;;-1.43;100.00;100213.50;4991881;28;20225;-76
2022/01/08 04:34:21;;;;;;;6.40;4.80;;;;;;;-1.34;100.00;100211.97;4993959;28;20205;-76
2022/01/08 04:36:47;;;;;;;7.43;5.10;;;;;;;-1.27;100.00;100220.56;4990480;28;20337;-76
2022/01/08 04:39:13;;;;;;;8.83;5.40;;;;;;;-1.19;100.00;100220.72;4990357;28;20217;-76
2022/01/08 04:41:41;;;;;;;8.70;5.03;;;;;;;-1.12;100.00;100221.69;4998697;28;20666;-76
2022/01/08 04:44:08;;;;;;;7.80;5.50;;;;;;;-1.09;100.00;100224.25;4986033;28;20731;-76
2022/01/08 04:46:34;;;;;;;8.13;5.57;;;;;;;-1.07;100.00;100232.81;4986554;28;20237;-76
2022/01/08 04:49:01;;;;;;;8.77;5.30;;;;;;;-1.06;100.00;100230.28;4988281;28;20205;-75
2022/01/08 04:51:28;;;;;;;9.30;5.43;;;;;;;-1.02;100.00;100228.63;5000958;28;20677;-75
2022/01/08 04:53:55;;;;;;;8.57;5.30;;;;;;;-1.02;100.00;100224.38;4996634;28;20834;-76
2022/01/08 04:56:21;;;;;;;7.73;5.40;;;;;;;-0.96;100.00;100228.72;4995002;28;20906;-76
2022/01/08 04:58:47;;;;;;;8.23;4.77;;;;;;;-0.90;100.00;100231.34;4988495;28;20723;-76
2022/01/08 05:01:14;;;;;;;7.13;4.97;;;;;;;-0.90;100.00;100227.94;4989176;28;20209;-75
2022/01/08 05:03:41;;;;;;;7.27;5.40;;;;;;;-0.95;100.00;100225.31;4990272;28;20232;-75
2022/01/08 05:06:07;;;;;;;7.13;4.80;;;;;;;-0.99;100.00;100226.13;4994764;28;20559;-76
2022/01/08 05:08:35;;;;;;;5.60;4.10;;;;;;;-1.04;100.00;100220.94;4987781;28;20213;-76
2022/01/08 05:11:01;;;;;;;8.07;4.47;;;;;;;-1.09;100.00;100224.25;4988391;28;20201;-75
2022/01/08 05:13:28;;;;;;;6.00;4.17;;;;;;;-1.14;100.00;100224.22;4976059;28;20729;-75
2022/01/08 05:15:55;;;;;;;6.67;4.27;;;;;;;-1.16;100.00;100225.88;4981841;28;20224;-75
2022/01/08 05:18:22;;;;;;;6.50;4.20;;;;;;;-1.22;100.00;100229.19;4993490;28;20210;-75
2022/01/08 05:21:06;;;;;;;6.33;4.20;;;;;;;-1.27;100.00;100240.19;4983757;28;20275;-75
2022/01/08 05:23:32;;;;;;;7.27;4.60;;;;;;;-1.29;100.00;100231.63;4983435;28;20213;-75
2022/01/08 05:26:00;;;;;;;7.10;4.63;;;;;;;-1.33;100.00;100229.03;4985583;28;20193;-75
2022/01/08 05:28:27;;;;;;;5.60;4.30;;;;;;;-1.36;100.00;100225.56;4986274;28;20197;-75
2022/01/08 05:30:53;;;;;;;6.30;4.37;;;;;;;-1.33;100.00;100230.72;4982502;28;20217;-75
2022/01/08 05:33:20;;;;;;;8.20;4.47;;;;;;;-1.29;100.00;100223.97;4986146;28;20531;-75
2022/01/08 05:35:46;;;;;;;6.67;4.63;;;;;;;-1.27;100.00;100230.81;4989211;28;20209;-75
2022/01/08 05:38:13;;;;;;;6.33;4.43;;;;;;;-1.22;100.00;100236.84;4984424;28;20269;-75
2022/01/08 05:40:39;;;;;;;7.33;4.70;;;;;;;-1.16;100.00;100238.69;4987290;28;20229;-75
2022/01/08 05:43:07;;;;;;;6.40;5.03;;;;;;;-1.14;100.00;100234.44;4987196;28;20233;-75
2022/01/08 05:45:33;;;;;;;6.47;4.53;;;;;;;-1.07;100.00;100237.94;4985117;28;20244;-75
2022/01/08 05:48:00;;;;;;;9.30;5.00;;;;;;;-1.02;100.00;100238.84;4984004;28;20201;-75
2022/01/08 05:50:26;;;;;;;7.83;4.97;;;;;;;-0.98;100.00;100232.97;4979107;28;20205;-75
2022/01/08 05:52:53;;;;;;;7.10;4.83;;;;;;;-0.94;100.00;100241.56;4979256;28;20240;-75
2022/01/08 05:55:19;;;;;;;7.00;4.80;;;;;;;-0.90;100.00;100243.31;4989208;28;20205;-75
2022/01/08 05:57:46;;;;;;;7.83;4.90;;;;;;;-0.87;100.00;100240.78;4978984;28;20210;-75
2022/01/08 06:00:14;;;;;;;7.47;4.60;;;;;;;-0.85;100.00;100250.22;4987170;28;20221;-75
2022/01/08 06:02:40;;;;;;;8.87;4.97;;;;;;;-0.82;100.00;100249.41;4982774;28;20706;-75
2022/01/08 06:05:08;;;;;;;7.27;5.13;;;;;;;-0.80;100.00;100245.16;4987729;28;20629;-75
2022/01/08 06:07:35;;;;;;;7.50;4.77;;;;;;;-0.78;100.00;100241.75;4984783;28;20205;-76
2022/01/08 06:10:01;;;;;;;6.67;4.70;;;;;;;-0.76;100.00;100241.78;4985552;28;20201;-75
2022/01/08 06:12:28;;;;;;;6.60;5.10;;;;;;;-0.72;100.00;100246.13;4988429;28;20217;-75
2022/01/08 06:14:54;;;;;;;7.13;4.83;;;;;;;-0.73;100.00;100236.72;4983703;28;20213;-75
2022/01/08 06:17:22;;;;;;;5.73;4.33;;;;;;;-0.71;100.00;100236.75;4982901;28;20667;-75
2022/01/08 06:19:49;;;;;;;6.67;4.27;;;;;;;-0.70;100.00;100236.78;4981540;28;20229;-75
2022/01/08 06:22:15;;;;;;;7.90;4.83;;;;;;;-0.69;100.00;100235.06;4984220;28;20225;-75
2022/01/08 06:24:42;;;;;;;7.03;4.80;;;;;;;-0.69;100.00;100235.91;4979307;28;20204;-75
2022/01/08 06:27:08;;;;;;;5.40;4.17;;;;;;;-0.68;100.00;100244.47;4982822;28;20559;-76
2022/01/08 06:29:35;;;;;;;7.53;4.47;;;;;;;-0.69;100.00;100238.47;4985374;28;20619;-75
2022/01/08 06:32:01;;;;;;;7.20;4.37;;;;;;;-0.69;100.00;100240.19;4986009;28;20213;-75
2022/01/08 06:34:29;;;;;;;5.90;4.33;;;;;;;-0.70;100.00;100244.47;4984229;28;20197;-75
2022/01/08 06:36:55;;;;;;;5.73;4.30;;;;;;;-0.69;100.00;100246.16;4985732;28;20232;-75
2022/01/08 06:39:22;;;;;;;6.40;4.40;;;;;;;-0.72;100.00;100248.69;4985740;28;20201;-75
2022/01/08 06:41:48;;;;;;;5.70;4.33;;;;;;;-0.73;100.00;100249.53;4987016;28;20197;-75
2022/01/08 06:44:14;;;;;;;5.63;3.70;;;;;;;-0.74;100.00;100252.06;4986545;28;20197;-75
2022/01/08 06:46:41;;;;;;;5.10;4.00;;;;;;;-0.77;100.00;100247.78;4984253;28;20242;-75
2022/01/08 06:49:08;;;;;;;6.20;4.00;;;;;;;-0.79;100.00;100247.75;4988425;28;20282;-75
2022/01/08 06:51:36;;;;;;;5.50;4.03;;;;;;;-0.84;100.00;100244.25;4980577;28;20576;-75
2022/01/08 06:54:02;;;;;;;6.77;4.07;;;;;;;-0.89;100.00;100239.91;4985253;28;20206;-76
2022/01/08 06:56:28;;;;;;;7.30;4.43;;;;;;;-0.90;100.00;100238.19;4983357;28;20214;-75
2022/01/08 06:58:55;;;;;;;6.87;4.20;;;;;;;-0.94;100.00;100234.72;4979491;28;20220;-75
2022/01/08 07:01:22;;;;;;;7.07;4.27;;;;;;;-0.98;100.00;100243.22;4985314;28;20213;-75
2022/01/08 07:03:48;;;;;;;6.83;4.67;;;;;;;-1.00;100.00;100250.00;4980283;28;20233;-75
2022/01/08 07:06:14;;;;;;;5.43;3.93;;;;;;;-1.05;100.00;100246.50;4978924;28;20208;-75
2022/01/08 07:08:42;;;;;;;6.87;4.23;;;;;;;-1.11;100.00;100248.97;4982724;28;20655;-75
2022/01/08 07:11:10;;;;;;;7.57;4.53;;;;;;;-1.15;100.00;100240.38;4984511;28;20193;-75
2022/01/08 07:13:36;;;;;;;8.07;4.80;;;;;;;-1.18;100.00;100250.56;4982363;28;20230;-75
2022/01/08 07:16:03;;;;;;;10.00;4.83;;;;;;;-1.21;100.00;100246.28;4986068;28;20200;-75
2022/01/08 07:18:29;;;;;;;6.73;4.40;;;;;;;-1.23;100.00;100247.94;4981427;28;20209;-75
2022/01/08 07:20:55;;;;;;;6.27;4.40;;;;;;;-1.26;100.00;100254.72;4985909;28;20249;-75
2022/01/08 07:23:22;;;;;;;7.77;4.20;;;;;;;-1.28;100.00;100258.94;4987196;28;20225;-75
2022/01/08 07:25:50;;;;;;;5.93;4.33;;;;;;;-1.33;100.00;100258.88;4984580;28;20188;-75
2022/01/08 07:28:17;;;;;;;6.57;4.77;;;;;;;-1.36;100.00;100264.78;4983771;28;20193;-75
2022/01/08 07:30:44;;;;;;;6.43;4.50;;;;;;;-1.39;100.00;100261.31;4983121;28;20708;-75
2022/01/08 07:33:10;;;;;;;7.33;4.67;;;;;;;-1.42;100.00;100262.13;4982695;28;20217;-75
2022/01/08 07:35:37;;;;;;;8.00;5.53;;;;;;;-1.39;100.00;100267.31;4979630;28;20209;-75
2022/01/08 07:38:03;;;;;;;9.10;5.83;;;;;;;-1.43;100.00;100265.50;4985135;28;20205;-74
2022/01/08 07:40:30;;;;;;;20.17;13.40;;;;;;;-1.46;100.00;100264.59;4981874;28;20225;-74
2022/01/08 07:42:58;;;;;;;16.83;11.07;;;;;;;-1.48;100.00;100267.13;4982518;28;20228;-74
2022/01/08 07:45:24;;;;;;;16.17;10.67;;;;;;;-1.50;100.00;100256.00;4982299;28;20209;-74
2022/01/08 07:47:51;;;;;;;11.97;7.90;;;;;;;-1.50;100.00;100258.56;4986526;28;20197;-74
2022/01/08 07:50:18;;;;;;;15.67;8.60;;;;;;;-1.54;100.00;100256.81;4978246;28;20630;-74
2022/01/08 07:52:45;;;;;;;11.07;6.10;;;;;;;-1.54;100.00;100254.25;4983067;28;20227;-74
2022/01/08 07:55:12;;;;;;;8.70;5.33;;;;;;;-1.55;100.00;100258.50;4992382;28;20208;-74
2022/01/08 07:57:39;;;;;;;10.37;7.10;;;;;;;-1.54;100.00;100260.22;4983222;28;20641;-74
2022/01/08 08:00:09;;;;;;;9.43;5.47;;;;;;;-1.55;100.00;100258.50;4981111;28;20226;-74
2022/01/08 08:02:41;;;;;;;7.23;4.90;;;;;;;-1.54;100.00;100256.81;4980243;28;20233;-74
2022/01/08 08:05:08;;;;;;;7.37;4.70;;;;;;;-1.54;100.00;100256.81;4982858;28;20216;-74
2022/01/08 08:07:37;;;;;;;6.90;4.50;;;;;;;-1.53;100.00;100255.94;4978656;28;20209;-74
2022/01/08 08:10:05;;;;;;;8.53;4.67;;;;;;;-1.51;100.00;100254.31;4980529;28;20215;-74
2022/01/08 08:12:31;;;;;;;8.17;4.57;;;;;;;-1.49;100.00;100254.34;4982611;28;20828;-74
2022/01/08 08:14:58;;;;;;;6.23;4.70;;;;;;;-1.47;100.00;100257.78;4980268;28;20210;-74
2022/01/08 08:17:25;;;;;;;7.10;4.53;;;;;;;-1.44;100.00;100256.13;4981280;28;20209;-74
2022/01/08 08:19:52;;;;;;;7.83;4.97;;;;;;;-1.41;100.00;100263.84;4983095;28;20198;-74
2022/01/08 08:22:18;;;;;;;7.87;4.87;;;;;;;-1.33;100.00;100274.22;4983396;28;20225;-74
2022/01/08 08:24:44;;;;;;;11.80;6.80;;;;;;;-1.22;100.00;100267.56;4985499;28;20209;-75
2022/01/08 08:27:11;;;;;;;13.30;7.13;;;;;;;-1.15;100.00;100266.81;4992053;28;20198;-74
2022/01/08 08:29:40;;;;;;;11.37;7.27;;;;;;;-1.07;100.00;100264.41;4980484;28;20203;-75
2022/01/08 08:32:07;;;;;;;16.10;9.53;;;;;;;-0.96;100.00;100265.41;4981338;28;20333;-75
2022/01/08 08:34:35;;;;;;;25.80;12.63;;;;;;;-0.86;100.00;100271.53;4983582;28;20201;-75
2022/01/08 08:37:02;;;;;;;29.40;14.60;;;;;;;-0.77;100.00;100279.34;4980282;28;20209;-75
2022/01/08 08:39:28;;;;;;;72.43;31.47;;;;;;;-0.72;100.00;100268.31;4979545;28;21005;-74
2022/01/08 08:41:55;;;;;;;75.43;36.90;;;;;;;-0.67;100.00;100270.09;4984322;28;20233;-74
2022/01/08 08:44:21;;;;;;;87.10;48.47;;;;;;;-0.63;100.00;100273.56;4979571;28;20213;-75
2022/01/08 08:46:48;;;;;;;51.33;29.37;;;;;;;-0.55;100.00;100276.22;4982914;28;20205;-75
2022/01/08 08:49:14;;;;;;;40.03;19.23;;;;;;;-0.49;100.00;100276.28;4985955;28;20216;-75
2022/01/08 08:51:42;;;;;;;202.83;92.67;;;;;;;-0.44;100.00;100284.91;4980257;28;20878;-75
2022/01/08 08:54:08;;;;;;;102.43;50.33;;;;;;;-0.39;100.00;100279.03;4982998;28;20202;-75
2022/01/08 08:56:35;;;;;;;106.73;52.07;;;;;;;-0.33;100.00;100278.22;4982395;28;20198;-75
2022/01/08 08:59:01;;;;;;;37.27;19.70;;;;;;;-0.28;100.00;100276.59;4983987;28;20685;-76
2022/01/08 09:01:28;;;;;;;29.77;17.23;;;;;;;-0.22;100.00;100278.38;4980863;28;20929;-75
2022/01/08 09:03:55;;;;;;;30.40;20.60;;;;;;;-0.17;100.00;100274.16;4981284;28;20221;-75
2022/01/08 09:06:22;;;;;;;39.07;24.70;;;;;;;-0.11;100.00;100286.19;4982165;28;20205;-75
2022/01/08 09:08:50;;;;;;;24.70;13.97;;;;;;;-0.09;100.00;100277.69;4981543;28;20270;-75
2022/01/08 09:11:16;;;;;;;16.30;9.47;;;;;;;-0.07;100.00;100278.56;4982761;28;20210;-75
2022/01/08 09:13:43;;;;;;;27.90;12.97;;;;;;;-0.01;100.00;100282.88;4984776;28;20240;-76
2022/01/08 09:16:09;;;;;;;21.43;10.23;;;;;;;0.04;100.00;100288.06;4989671;28;20208;-75
2022/01/08 09:18:37;;;;;;;12.13;7.80;;;;;;;0.08;100.00;100285.53;4982948;28;20205;-75
2022/01/08 09:21:04;;;;;;;21.17;10.23;;;;;;;0.13;100.00;100288.16;4979207;28;20225;-75
2022/01/08 09:23:31;;;;;;;34.50;20.60;;;;;;;0.16;100.00;100289.06;4984961;28;20236;-75
2022/01/08 09:25:59;;;;;;;91.37;53.43;;;;;;;0.19;100.00;100288.22;4981836;28;20264;-75
2022/01/08 09:28:27;;;;;;;18.37;11.20;;;;;;;0.23;100.00;100290.00;4985948;28;20209;-75
2022/01/08 09:30:54;;;;;;;41.00;26.37;;;;;;;0.26;100.00;100284.88;4974544;28;20208;-75
2022/01/08 09:33:21;;;;;;;24.17;17.50;;;;;;;0.32;100.00;100278.97;4983185;28;20594;-75
2022/01/08 09:35:48;;;;;;;18.17;11.83;;;;;;;0.37;100.00;100287.56;4984411;28;20205;-76
2022/01/08 09:38:14;;;;;;;12.47;9.87;;;;;;;0.42;100.00;100283.31;4979333;28;20212;-76
2022/01/08 09:40:41;;;;;;;9.50;6.40;;;;;;;0.45;100.00;100283.38;4981560;28;20220;-75
2022/01/08 09:43:09;;;;;;;13.47;10.07;;;;;;;0.50;100.00;100285.97;4977646;28;20229;-75
2022/01/08 09:45:36;;;;;;;13.60;10.90;;;;;;;0.52;100.00;100289.41;4981662;28;20211;-75
2022/01/08 09:48:03;;;;;;;15.90;12.17;;;;;;;0.53;100.00;100281.75;4980635;28;20209;-75
2022/01/08 09:50:29;;;;;;;12.43;11.13;;;;;;;0.56;100.00;100286.03;4986958;28;20197;-76
2022/01/08 09:52:58;;;;;;;19.83;16.43;;;;;;;0.54;100.00;100280.88;4981928;28;20254;-75
2022/01/08 09:55:25;;;;;;;8.23;6.63;;;;;;;0.59;100.00;100273.22;4985418;28;20198;-75
2022/01/08 09:57:51;;;;;;;8.80;6.43;;;;;;;0.63;100.00;100267.28;4984640;28;20201;-75
2022/01/08 10:00:21;;;;;;;6.97;4.77;;;;;;;0.69;100.00;100263.94;4984393;28;20299;-75
2022/01/08 10:02:47;;;;;;;9.80;5.50;;;;;;;0.70;100.00;100266.50;4982222;28;20244;-75
2022/01/08 10:05:15;;;;;;;23.83;8.77;;;;;;;0.77;100.00;100259.69;4986066;28;20204;-76
2022/01/08 10:07:42;;;;;;;32.83;11.20;;;;;;;0.83;100.00;100252.06;4980244;28;20213;-76
2022/01/08 10:10:12;;;;;;;31.50;10.53;;;;;;;0.87;100.00;100253.78;4981792;28;20201;-75
2022/01/08 10:12:45;;;;;;;41.03;13.93;;;;;;;0.91;100.00;100247.81;4983662;28;20227;-76
2022/01/08 10:18:00;;;;;;;19.80;10.37;;;;;;;0.93;100.00;100243.56;4983428;28;20213;-76
2022/01/08 10:20:31;;;;;;;17.50;9.83;;;;;;;0.96;100.00;100252.16;4980509;28;20670;-76
2022/01/08 10:23:14;;;;;;;9.53;5.60;;;;;;;0.99;100.00;100247.03;4984365;28;20279;-76
2022/01/08 10:25:41;;;;;;;9.40;5.47;;;;;;;0.97;100.00;100238.44;4982212;28;20224;-76
2022/01/08 10:28:08;;;;;;;8.00;5.57;;;;;;;1.02;100.00;100239.34;4987316;28;20209;-76
2022/01/08 10:30:34;;;;;;;6.03;4.47;;;;;;;1.01;100.00;100238.47;4977999;28;20207;-76
2022/01/08 10:33:03;;;;;;;5.77;4.30;;;;;;;1.03;100.00;100238.50;4981658;28;20312;-75
2022/01/08 10:35:50;;;;;;;6.30;4.40;;;;;;;1.04;100.00;100233.38;4987815;28;20791;-75
2022/01/08 10:38:17;;;;;;;8.40;5.60;;;;;;;1.08;100.00;100236.81;4985335;28;20222;-75
2022/01/08 10:40:43;;;;;;;8.07;5.13;;;;;;;1.07;100.00;100240.22;4982657;28;20221;-75
2022/01/08 10:43:24;;;;;;;8.23;5.93;;;;;;;1.13;100.00;100248.00;4977192;28;20907;-75
2022/01/08 10:45:50;;;;;;;8.67;5.60;;;;;;;1.15;100.00;100248.84;4992274;28;20589;-76
2022/01/08 10:48:32;;;;;;;7.57;4.50;;;;;;;1.17;100.00;100247.16;4981049;28;20205;-75
2022/01/08 10:51:15;;;;;;;5.30;4.03;;;;;;;1.20;100.00;100249.75;4985187;28;20221;-76
2022/01/08 10:54:00;;;;;;;4.57;3.90;;;;;;;1.23;100.00;100249.75;4977854;28;20243;-75
2022/01/08 10:56:28;;;;;;;6.43;4.10;;;;;;;1.26;100.00;100254.91;4984521;28;20208;-76
2022/01/08 10:59:01;;;;;;;6.50;4.20;;;;;;;1.27;100.00;100254.06;4976015;28;20590;-76
2022/01/08 11:01:38;;;;;;;6.53;4.20;;;;;;;1.35;100.00;100248.09;4984280;28;20217;-76
2022/01/08 11:04:07;;;;;;;5.60;4.30;;;;;;;1.36;100.00;100244.69;4979221;28;20209;-76
2022/01/08 11:06:33;;;;;;;6.30;4.73;;;;;;;1.43;100.00;100251.59;4984020;28;20208;-76
2022/01/08 11:09:01;;;;;;;13.83;7.87;;;;;;;1.48;100.00;100249.91;4981121;28;20256;-75
2022/01/08 11:11:30;;;;;;;11.57;7.13;;;;;;;1.47;100.00;100243.88;4981360;28;20228;-75
2022/01/08 11:14:04;;;;;;;11.50;6.93;;;;;;;1.51;100.00;100239.63;4982410;28;20624;-75
2022/01/08 11:16:31;;;;;;;9.67;6.63;;;;;;;1.50;100.00;100241.34;4979606;28;20208;-76
2022/01/08 11:18:59;;;;;;;9.80;6.13;;;;;;;1.46;100.00;100249.88;4979522;28;20275;-76
2022/01/08 11:21:31;;;;;;;9.93;5.83;;;;;;;1.47;100.00;100243.88;4972178;28;20880;-76
2022/01/08 11:23:58;;;;;;;7.93;5.77;;;;;;;1.52;100.00;100239.63;4976670;28;20233;-76
2022/01/08 11:26:25;;;;;;;10.13;6.50;;;;;;;1.51;100.00;100240.50;4981268;28;20212;-76
2022/01/08 11:29:00;;;;;;;8.17;5.37;;;;;;;1.56;100.00;100243.06;4980154;28;20307;-75
2022/01/08 11:31:31;;;;;;;6.67;4.80;;;;;;;1.63;100.00;100242.25;4992028;28;20198;-76
2022/01/08 11:34:05;;;;;;;6.03;4.57;;;;;;;1.65;100.00;100235.41;4980846;28;20283;-76
2022/01/08 11:36:35;;;;;;;7.40;4.87;;;;;;;1.68;100.00;100227.69;4975640;28;20208;-76
2022/01/08 11:39:02;;;;;;;7.40;5.17;;;;;;;1.65;100.00;100230.28;4981746;28;20554;-76